createdAt,value
2019-06-15T00:01:52.939Z,100840.03
2019-06-15T00:04:21.539Z,100840.28
2019-06-15T00:06:50.492Z,100839.77
2019-06-15T00:09:19.135Z,100837.45
2019-06-15T00:11:47.707Z,100827.08
2019-06-15T00:14:16.405Z,100826.67
2019-06-15T00:16:45.033Z,100824.13
2019-06-15T00:19:13.768Z,100818.77
2019-06-15T00:21:42.410Z,100817.11
2019-06-15T00:24:11.081Z,100819.01
2019-06-15T00:26:39.668Z,100811.66
2019-06-15T00:29:08.374Z,100805.74
2019-06-15T00:31:37.018Z,100798.39
2019-06-15T00:34:05.593Z,100791.80
2019-06-15T00:36:34.171Z,100790.83
2019-06-15T00:39:03.150Z,100787.81
2019-06-15T00:41:31.819Z,100791.20
2019-06-15T00:44:00.525Z,100779.63
2019-06-15T00:46:29.241Z,100779.06
2019-06-15T00:48:57.781Z,100778.84
2019-06-15T00:51:26.354Z,100773.33
2019-06-15T00:53:54.994Z,100766.70
2019-06-15T00:56:23.543Z,100761.09
2019-06-15T00:58:53.169Z,100759.41
2019-06-15T01:01:21.737Z,100751.57
2019-06-15T01:03:52.044Z,100740.12
2019-06-15T01:06:20.585Z,100736.04
2019-06-15T01:08:49.189Z,100712.94
2019-06-15T01:11:17.818Z,100719.48
2019-06-15T01:13:46.512Z,100736.87
2019-06-15T01:16:15.080Z,100752.44
2019-06-15T01:18:43.777Z,100741.05
2019-06-15T01:21:12.339Z,100723.84
2019-06-15T01:23:40.942Z,100709.24
2019-06-15T01:26:09.507Z,100710.70
2019-06-15T01:28:38.114Z,100698.88
2019-06-15T01:31:06.737Z,100683.75
2019-06-15T01:33:35.638Z,100687.02
2019-06-15T01:36:04.765Z,100674.57
2019-06-15T01:38:33.391Z,100678.96
2019-06-15T01:41:02.122Z,100672.33
2019-06-15T01:43:30.829Z,100675.97
2019-06-15T01:45:59.462Z,100668.22
2019-06-15T01:48:28.149Z,100666.77
2019-06-15T01:50:56.709Z,100662.09
2019-06-15T01:53:25.393Z,100659.23
2019-06-15T01:55:54.012Z,100651.11
2019-06-15T01:58:22.652Z,100660.86
2019-06-15T02:00:51.268Z,100676.25
2019-06-15T02:03:19.923Z,100694.48
2019-06-15T02:05:48.542Z,100699.96
2019-06-15T02:08:17.145Z,100701.39
2019-06-15T02:10:45.700Z,100699.96
2019-06-15T02:13:14.336Z,100699.38
2019-06-15T02:15:42.952Z,100696.50
2019-06-15T02:18:11.673Z,100695.33
2019-06-15T02:20:40.223Z,100686.98
2019-06-15T02:23:08.900Z,100678.52
2019-06-15T02:25:37.527Z,100662.62
2019-06-15T02:28:06.252Z,100661.26
2019-06-15T02:30:35.392Z,100648.56
2019-06-15T02:33:04.651Z,100635.44
2019-06-15T02:35:33.286Z,100633.98
2019-06-15T02:38:02.009Z,100624.27
2019-06-15T02:40:30.623Z,100616.91
2019-06-15T02:42:59.241Z,100599.11
2019-06-15T02:45:27.868Z,100584.27
2019-06-15T02:47:56.605Z,100567.14
2019-06-15T02:50:25.667Z,100549.29
2019-06-15T02:52:54.379Z,100538.16
2019-06-15T02:55:23.002Z,100524.28
2019-06-15T02:57:51.603Z,100514.90
2019-06-15T03:00:29.007Z,100478.70
2019-06-15T03:02:57.732Z,100456.20
2019-06-15T03:05:26.472Z,100451.61
2019-06-15T03:07:55.104Z,100430.27
2019-06-15T03:10:23.726Z,100423.64
2019-06-15T03:12:52.780Z,100415.23
2019-06-15T03:15:21.408Z,100425.40
2019-06-15T03:17:50.026Z,100448.13
2019-06-15T03:20:19.655Z,100464.81
2019-06-15T03:22:48.249Z,100446.14
2019-06-15T03:25:17.482Z,100451.17
2019-06-15T03:27:46.184Z,100446.71
2019-06-15T03:30:14.835Z,100442.33
2019-06-15T03:32:43.434Z,100445.25
2019-06-15T03:35:12.904Z,100441.25
2019-06-15T03:37:41.566Z,100436.38
2019-06-15T03:40:10.512Z,100444.02
2019-06-15T03:42:39.207Z,100446.05
2019-06-15T03:45:08.850Z,100453.69
2019-06-15T03:47:37.592Z,100454.06
2019-06-15T03:50:07.716Z,100460.03
2019-06-15T03:52:36.307Z,100458.02
2019-06-15T03:55:06.571Z,100464.50
2019-06-15T03:57:35.286Z,100461.21
2019-06-15T04:00:04.689Z,100455.44
2019-06-15T04:02:33.389Z,100445.45
2019-06-15T04:05:02.050Z,100456.67
2019-06-15T04:07:30.685Z,100456.08
2019-06-15T04:09:59.242Z,100462.61
2019-06-15T04:12:27.855Z,100451.08
2019-06-15T04:14:56.485Z,100446.48
2019-06-15T04:17:25.109Z,100439.55
2019-06-15T04:19:53.675Z,100432.47
2019-06-15T04:22:22.463Z,100436.45
2019-06-15T04:24:50.962Z,100444.27
2019-06-15T04:27:19.631Z,100436.69
2019-06-15T04:29:48.221Z,100427.59
2019-06-15T04:32:16.856Z,100424.23
2019-06-15T04:34:45.502Z,100427.63
2019-06-15T04:37:14.058Z,100434.59
2019-06-15T04:39:42.702Z,100436.82
2019-06-15T04:42:11.400Z,100433.20
2019-06-15T04:44:40.016Z,100441.75
2019-06-15T04:47:08.596Z,100448.80
2019-06-15T04:49:37.211Z,100452.41
2019-06-15T04:52:05.848Z,100446.97
2019-06-15T04:54:34.500Z,100442.03
2019-06-15T04:57:03.092Z,100431.80
2019-06-15T04:59:31.805Z,100426.42
2019-06-15T05:02:00.729Z,100423.87
2019-06-15T05:04:29.444Z,100423.87
2019-06-15T05:06:57.991Z,100420.94
2019-06-15T05:09:26.626Z,100418.59
2019-06-15T05:11:55.198Z,100414.85
2019-06-15T05:14:23.743Z,100414.73
2019-06-15T05:16:52.323Z,100408.99
2019-06-15T05:19:21.010Z,100403.03
2019-06-15T05:21:49.593Z,100395.95
2019-06-15T05:24:18.233Z,100392.99
2019-06-15T05:26:46.794Z,100386.75
2019-06-15T05:29:15.427Z,100389.38
2019-06-15T05:31:44.020Z,100389.53
2019-06-15T05:34:12.613Z,100375.16
2019-06-15T05:36:41.230Z,100375.23
2019-06-15T05:39:09.926Z,100375.91
2019-06-15T05:41:38.511Z,100379.98
2019-06-15T05:44:07.204Z,100377.75
2019-06-15T05:46:35.756Z,100369.66
2019-06-15T05:49:04.453Z,100370.84
2019-06-15T05:51:33.016Z,100374.94
2019-06-15T05:54:01.681Z,100364.70
2019-06-15T05:56:33.408Z,100370.41
2019-06-15T05:59:00.699Z,100355.63
2019-06-15T06:01:29.278Z,100353.86
2019-06-15T06:03:57.967Z,100343.44
2019-06-15T06:06:26.598Z,100346.29
2019-06-15T06:08:55.239Z,100361.59
2019-06-15T06:11:23.868Z,100346.24
2019-06-15T06:13:52.492Z,100364.68
2019-06-15T06:16:21.047Z,100345.59
2019-06-15T06:18:49.701Z,100360.97
2019-06-15T06:21:18.267Z,100359.78
2019-06-15T06:23:46.867Z,100372.23
2019-06-15T06:26:15.583Z,100357.80
2019-06-15T06:28:56.531Z,100362.84
2019-06-15T06:31:14.446Z,100357.62
2019-06-15T06:33:43.098Z,100363.27
2019-06-15T06:36:11.727Z,100364.72
2019-06-15T06:38:40.348Z,100372.55
2019-06-15T06:41:08.977Z,100377.01
2019-06-15T06:43:37.659Z,100375.42
2019-06-15T06:46:06.220Z,100381.05
2019-06-15T06:48:34.902Z,100380.23
2019-06-15T06:51:03.463Z,100374.04
2019-06-15T06:53:32.025Z,100383.65
2019-06-15T06:56:00.699Z,100381.23
2019-06-15T06:58:29.377Z,100384.66
2019-06-15T07:00:58.012Z,100392.08
2019-06-15T07:03:26.624Z,100391.47
2019-06-15T07:05:55.202Z,100395.66
2019-06-15T07:08:23.864Z,100395.48
2019-06-15T07:10:52.551Z,100395.70
2019-06-15T07:13:21.233Z,100388.89
2019-06-15T07:15:49.800Z,100384.47
2019-06-15T07:18:18.453Z,100367.83
2019-06-15T07:20:47.091Z,100360.41
2019-06-15T07:23:15.750Z,100357.18
2019-06-15T07:25:44.377Z,100354.77
2019-06-15T07:28:13.093Z,100354.38
2019-06-15T07:30:43.083Z,100346.73
2019-06-15T07:33:11.805Z,100333.14
2019-06-15T07:35:40.359Z,100336.35
2019-06-15T07:38:08.992Z,100330.13
2019-06-15T07:40:37.631Z,100323.30
2019-06-15T07:43:07.180Z,100321.70
2019-06-15T07:45:35.761Z,100334.94
2019-06-15T07:48:04.430Z,100338.16
2019-06-15T07:50:33.088Z,100352.57
2019-06-15T07:53:01.693Z,100349.16
2019-06-15T07:55:30.293Z,100346.30
2019-06-15T07:57:58.906Z,100350.47
2019-06-15T08:00:27.486Z,100361.91
2019-06-15T08:02:56.184Z,100360.11
2019-06-15T08:05:24.757Z,100358.43
2019-06-15T08:07:53.443Z,100373.47
2019-06-15T08:10:22.201Z,100374.09
2019-06-15T08:12:50.855Z,100358.61
2019-06-15T08:15:19.489Z,100350.17
2019-06-15T08:17:48.130Z,100360.13
2019-06-15T08:20:18.732Z,100352.35
2019-06-15T08:22:47.444Z,100355.61
2019-06-15T08:25:16.084Z,100354.69
2019-06-15T08:27:47.816Z,100351.67
2019-06-15T08:30:18.215Z,100352.52
2019-06-15T08:32:46.870Z,100339.56
2019-06-15T08:35:15.565Z,100344.59
2019-06-15T08:37:44.291Z,100341.14
2019-06-15T08:40:14.549Z,100331.56
2019-06-15T08:42:43.245Z,100336.23
2019-06-15T08:45:12.089Z,100336.20
2019-06-15T08:47:40.783Z,100332.70
2019-06-15T08:50:09.625Z,100327.45
2019-06-15T08:52:38.402Z,100321.88
2019-06-15T08:55:07.056Z,100325.41
2019-06-15T08:57:35.690Z,100331.99
2019-06-15T09:00:06.382Z,100323.52
2019-06-15T09:02:35.034Z,100318.39
2019-06-15T09:05:07.374Z,100317.23
2019-06-15T09:07:36.100Z,100316.66
2019-06-15T09:10:07.128Z,100314.27
2019-06-15T09:12:35.892Z,100307.67
2019-06-15T09:15:09.420Z,100311.87
2019-06-15T09:17:38.027Z,100313.22
2019-06-15T09:20:10.561Z,100308.45
2019-06-15T09:22:39.149Z,100307.87
2019-06-15T09:25:08.227Z,100308.14
2019-06-15T09:27:36.871Z,100290.19
2019-06-15T09:30:07.051Z,100287.62
2019-06-15T09:32:35.898Z,100275.54
2019-06-15T09:35:06.740Z,100277.50
2019-06-15T09:37:35.378Z,100272.69
2019-06-15T09:40:05.689Z,100279.41
2019-06-15T09:42:34.720Z,100272.13
2019-06-15T09:45:04.570Z,100279.22
2019-06-15T09:47:33.194Z,100277.79
2019-06-15T09:50:01.822Z,100283.30
2019-06-15T09:52:30.490Z,100281.70
2019-06-15T09:54:59.213Z,100279.14
2019-06-15T09:57:27.894Z,100281.67
2019-06-15T09:59:56.456Z,100282.06
2019-06-15T10:02:25.143Z,100279.55
2019-06-15T10:04:53.697Z,100274.80
2019-06-15T10:07:22.420Z,100276.14
2019-06-15T10:09:51.057Z,100287.48
2019-06-15T10:12:20.041Z,100283.02
2019-06-15T10:14:48.691Z,100289.48
2019-06-15T10:17:17.476Z,100294.45
2019-06-15T10:19:46.051Z,100292.43
2019-06-15T10:22:14.641Z,100291.37
2019-06-15T10:24:43.352Z,100287.38
2019-06-15T10:27:12.070Z,100283.22
2019-06-15T10:29:42.197Z,100283.02
2019-06-15T10:32:11.285Z,100283.61
2019-06-15T10:34:39.886Z,100291.02
2019-06-15T10:37:08.458Z,100293.63
2019-06-15T10:39:37.078Z,100290.52
2019-06-15T10:42:05.745Z,100297.69
2019-06-15T10:44:34.935Z,100290.89
2019-06-15T10:47:03.586Z,100291.34
2019-06-15T10:49:32.249Z,100285.77
2019-06-15T10:52:00.849Z,100286.05
2019-06-15T10:54:29.419Z,100286.70
2019-06-15T10:56:57.999Z,100286.80
2019-06-15T10:59:26.628Z,100289.39
2019-06-15T11:01:55.263Z,100289.83
2019-06-15T11:04:23.955Z,100292.16
2019-06-15T11:06:52.616Z,100293.06
2019-06-15T11:09:21.228Z,100286.19
2019-06-15T11:11:49.780Z,100286.38
2019-06-15T11:14:18.462Z,100284.52
2019-06-15T11:16:47.477Z,100288.23
2019-06-15T11:19:16.080Z,100292.32
2019-06-15T11:21:44.657Z,100297.37
2019-06-15T11:24:13.289Z,100298.86
2019-06-15T11:26:42.212Z,100305.50
2019-06-15T11:29:11.226Z,100311.95
2019-06-15T11:31:39.814Z,100306.67
2019-06-15T11:34:08.394Z,100313.85
2019-06-15T11:36:37.031Z,100317.63
2019-06-15T11:39:07.172Z,100310.66
2019-06-15T11:41:35.822Z,100310.92
2019-06-15T11:44:04.877Z,100315.30
2019-06-15T11:46:33.633Z,100306.17
2019-06-15T11:49:02.357Z,100318.02
2019-06-15T11:51:31.037Z,100314.63
2019-06-15T11:53:59.655Z,100309.54
2019-06-15T11:56:28.348Z,100313.80
2019-06-15T11:58:57.125Z,100314.84
2019-06-15T12:01:25.821Z,100316.61
2019-06-15T12:03:54.623Z,100307.22
2019-06-15T12:06:23.166Z,100311.92
2019-06-15T12:08:51.761Z,100314.45
2019-06-15T12:11:20.385Z,100315.55
2019-06-15T12:13:49.010Z,100318.73
2019-06-15T12:16:17.565Z,100323.07
2019-06-15T12:18:46.200Z,100321.97
2019-06-15T12:21:14.806Z,100325.28
2019-06-15T12:23:43.410Z,100319.94
2019-06-15T12:26:11.965Z,100331.77
2019-06-15T12:28:40.727Z,100334.73
2019-06-15T12:31:09.289Z,100333.34
2019-06-15T12:33:37.888Z,100328.25
2019-06-15T12:36:18.315Z,100331.13
2019-06-15T12:38:36.913Z,100344.17
2019-06-15T12:41:05.538Z,100345.17
2019-06-15T12:43:34.169Z,100343.59
2019-06-15T12:46:02.920Z,100330.49
2019-06-15T12:48:31.545Z,100337.75
2019-06-15T12:51:00.189Z,100330.52
2019-06-15T12:53:28.761Z,100334.67
2019-06-15T12:55:57.376Z,100339.29
2019-06-15T12:58:26.001Z,100333.05
2019-06-15T13:01:02.836Z,100341.30
2019-06-15T13:03:25.064Z,100340.19
2019-06-15T13:05:53.689Z,100344.09
2019-06-15T13:08:22.277Z,100345.50
2019-06-15T13:10:50.883Z,100342.86
2019-06-15T13:13:19.503Z,100347.02
2019-06-15T13:15:49.163Z,100353.25
2019-06-15T13:18:17.773Z,100345.29
2019-06-15T13:20:46.311Z,100346.67
2019-06-15T13:23:14.956Z,100344.52
2019-06-15T13:25:43.523Z,100345.61
2019-06-15T13:28:14.363Z,100348.42
2019-06-15T13:30:42.969Z,100346.51
2019-06-15T13:33:11.585Z,100348.86
2019-06-15T13:35:40.193Z,100350.24
2019-06-15T13:38:08.829Z,100356.58
2019-06-15T13:40:37.453Z,100352.40
2019-06-15T13:43:06.183Z,100359.30
2019-06-15T13:45:34.732Z,100347.25
2019-06-15T13:48:03.411Z,100368.01
2019-06-15T13:50:31.964Z,100353.25
2019-06-15T13:53:00.732Z,100359.56
2019-06-15T13:55:29.462Z,100362.86
2019-06-15T13:57:58.134Z,100367.36
2019-06-15T14:00:26.778Z,100364.99
2019-06-15T14:02:55.449Z,100376.64
2019-06-15T14:05:24.100Z,100386.27
2019-06-15T14:07:53.036Z,100379.70
2019-06-15T14:10:21.673Z,100378.34
2019-06-15T14:12:50.278Z,100381.37
2019-06-15T14:15:18.909Z,100380.66
2019-06-15T14:17:47.505Z,100373.45
2019-06-15T14:20:16.181Z,100385.62
2019-06-15T14:22:44.799Z,100387.12
2019-06-15T14:25:13.504Z,100388.39
2019-06-15T14:27:42.146Z,100382.87
2019-06-15T14:30:11.300Z,100386.84
2019-06-15T14:32:40.015Z,100392.39
2019-06-15T14:35:08.997Z,100387.16
2019-06-15T14:37:37.598Z,100393.59
2019-06-15T14:40:06.747Z,100388.73
2019-06-15T14:42:35.349Z,100395.71
2019-06-15T14:45:04.779Z,100399.00
2019-06-15T14:47:33.476Z,100404.25
2019-06-15T14:50:02.126Z,100400.00
2019-06-15T14:52:30.727Z,100398.22
2019-06-15T14:54:59.301Z,100395.76
2019-06-15T14:57:27.987Z,100393.45
2019-06-15T15:00:03.985Z,100402.33
2019-06-15T15:02:26.974Z,100397.83
2019-06-15T15:04:56.478Z,100388.71
2019-06-15T15:07:26.333Z,100402.00
2019-06-15T15:09:56.637Z,100404.41
2019-06-15T15:12:26.719Z,100410.67
2019-06-15T15:14:56.464Z,100417.30
2019-06-15T15:17:26.905Z,100410.36
2019-06-15T15:19:57.391Z,100415.95
2019-06-15T15:22:26.981Z,100415.98
2019-06-15T15:24:56.571Z,100419.93
2019-06-15T15:27:27.144Z,100418.05
2019-06-15T15:29:56.991Z,100423.20
2019-06-15T15:32:31.208Z,100441.34
2019-06-15T15:34:56.221Z,100448.09
2019-06-15T15:37:26.907Z,100445.42
2019-06-15T15:39:56.481Z,100455.05
2019-06-15T15:42:26.766Z,100478.75
2019-06-15T15:44:56.555Z,100471.83
2019-06-15T15:47:27.285Z,100477.90
2019-06-15T15:49:57.597Z,100489.95
2019-06-15T15:52:26.959Z,100489.06
2019-06-15T15:54:56.580Z,100485.29
2019-06-15T15:57:26.502Z,100499.29
2019-06-15T15:59:56.354Z,100499.73
2019-06-15T16:02:35.702Z,100505.94
2019-06-15T16:04:57.545Z,100512.97
2019-06-15T16:07:27.709Z,100511.05
2019-06-15T16:09:56.065Z,100514.90
2019-06-15T16:12:24.736Z,100514.23
2019-06-15T16:14:53.273Z,100516.50
2019-06-15T16:17:21.879Z,100513.81
2019-06-15T16:19:50.360Z,100523.67
2019-06-15T16:22:18.992Z,100526.42
2019-06-15T16:24:48.063Z,100519.13
2019-06-15T16:27:16.818Z,100520.85
2019-06-15T16:29:46.977Z,100529.77
2019-06-15T16:32:16.203Z,100523.77
2019-06-15T16:34:47.283Z,100522.16
2019-06-15T16:37:16.987Z,100520.38
2019-06-15T16:39:46.772Z,100521.75
2019-06-15T16:42:15.518Z,100515.10
2019-06-15T16:44:44.086Z,100530.56
2019-06-15T16:47:12.860Z,100533.77
2019-06-15T16:49:41.420Z,100540.08
2019-06-15T16:52:10.145Z,100541.46
2019-06-15T16:54:38.773Z,100543.48
2019-06-15T16:57:07.364Z,100538.91
2019-06-15T16:59:36.502Z,100555.17
2019-06-15T17:02:06.495Z,100548.40
2019-06-15T17:04:36.378Z,100549.83
2019-06-15T17:07:07.146Z,100557.87
2019-06-15T17:09:36.272Z,100560.06
2019-06-15T17:12:06.560Z,100562.10
2019-06-15T17:14:36.425Z,100564.48
2019-06-15T17:17:05.521Z,100566.30
2019-06-15T17:19:36.247Z,100566.91
2019-06-15T17:22:16.719Z,100570.92
2019-06-15T17:24:36.950Z,100575.72
2019-06-15T17:27:06.098Z,100581.74
2019-06-15T17:29:34.950Z,100585.16
2019-06-15T17:32:06.216Z,100584.97
2019-06-15T17:34:36.227Z,100591.19
2019-06-15T17:37:06.689Z,100592.77
2019-06-15T17:39:37.054Z,100595.38
2019-06-15T17:42:07.608Z,100601.00
2019-06-15T17:44:36.971Z,100600.59
2019-06-15T17:47:26.250Z,100596.49
2019-06-15T17:50:14.078Z,100588.25
2019-06-15T17:53:01.690Z,100585.41
2019-06-15T17:55:49.380Z,100594.25
2019-06-15T17:58:37.197Z,100600.76
2019-06-15T18:01:26.494Z,100613.81
2019-06-15T18:04:16.558Z,100602.17
2019-06-15T18:07:03.583Z,100604.80
2019-06-15T18:09:51.148Z,100605.94
2019-06-15T18:12:38.698Z,100600.11
2019-06-15T18:15:26.593Z,100610.54
2019-06-15T18:18:16.651Z,100620.73
2019-06-15T18:21:03.519Z,100618.34
2019-06-15T18:23:51.087Z,100623.44
2019-06-15T18:26:44.112Z,100631.80
2019-06-15T18:29:32.012Z,100637.67
2019-06-15T18:32:19.578Z,100630.25
2019-06-15T18:35:07.644Z,100626.17
2019-06-15T18:37:55.922Z,100637.30
2019-06-15T18:40:43.480Z,100633.58
2019-06-15T18:43:31.055Z,100622.06
2019-06-15T18:46:18.678Z,100616.27
2019-06-15T18:49:06.864Z,100618.56
2019-06-15T18:51:56.569Z,100602.55
2019-06-15T18:54:43.917Z,100599.69
2019-06-15T18:57:31.477Z,100617.69
2019-06-15T19:00:19.275Z,100628.58
2019-06-15T19:03:07.130Z,100625.63
2019-06-15T19:05:56.894Z,100623.98
2019-06-15T19:08:46.632Z,100618.03
2019-06-15T19:11:33.439Z,100613.16
2019-06-15T19:14:21.017Z,100621.48
2019-06-15T19:17:08.581Z,100625.16
2019-06-15T19:19:57.218Z,100626.66
2019-06-15T19:22:47.488Z,100636.63
2019-06-15T19:25:36.348Z,100641.69
2019-06-15T19:28:23.588Z,100642.20
2019-06-15T19:31:11.211Z,100656.12
2019-06-15T19:33:58.859Z,100668.72
2019-06-15T19:36:46.918Z,100682.69
2019-06-15T19:39:36.804Z,100703.17
2019-06-15T19:42:25.919Z,100714.11
2019-06-15T19:45:16.807Z,100718.29
2019-06-15T19:48:03.139Z,100726.95
2019-06-15T19:50:50.736Z,100738.33
2019-06-15T19:53:38.320Z,100755.37
2019-06-15T19:56:26.090Z,100765.83
2019-06-15T19:59:13.672Z,100779.05
2019-06-15T20:02:01.315Z,100789.13
2019-06-15T20:05:00.415Z,100811.91
2019-06-15T20:07:39.402Z,100816.23
2019-06-15T20:10:28.532Z,100816.59
2019-06-15T20:13:16.146Z,100823.76
2019-06-15T20:16:07.814Z,100821.64
2019-06-15T20:18:57.108Z,100817.48
2019-06-15T20:21:46.314Z,100822.58
2019-06-15T20:24:36.471Z,100821.05
2019-06-15T20:27:23.575Z,100830.16
2019-06-15T20:30:11.704Z,100834.48
2019-06-15T20:33:00.187Z,100841.20
2019-06-15T20:35:47.835Z,100832.95
2019-06-15T20:38:36.348Z,100838.09
2019-06-15T20:41:26.820Z,100838.60
2019-06-15T20:44:13.419Z,100844.14
2019-06-15T20:47:00.935Z,100842.26
2019-06-15T20:49:48.928Z,100842.20
2019-06-15T20:52:38.175Z,100852.12
2019-06-15T20:55:26.540Z,100847.50
2019-06-15T20:58:16.712Z,100849.84
2019-06-15T21:01:03.701Z,100848.25
2019-06-15T21:03:51.265Z,100852.52
2019-06-15T21:06:41.613Z,100849.56
2019-06-15T21:09:29.196Z,100852.84
2019-06-15T21:12:16.847Z,100852.45
2019-06-15T21:15:07.314Z,100859.37
2019-06-15T21:17:57.148Z,100858.94
2019-06-15T21:20:46.836Z,100859.42
2019-06-15T21:23:33.507Z,100867.61
2019-06-15T21:26:21.063Z,100862.61
2019-06-15T21:29:08.680Z,100863.70
2019-06-15T21:31:56.914Z,100867.44
2019-06-15T21:34:48.774Z,100876.14
2019-06-15T21:37:37.419Z,100878.16
2019-06-15T21:40:27.327Z,100878.49
2019-06-15T21:43:16.927Z,100891.23
2019-06-15T21:46:06.367Z,100897.13
2019-06-15T21:48:56.232Z,100897.39
2019-06-15T21:51:43.042Z,100896.21
2019-06-15T21:54:30.604Z,100890.17
2019-06-15T21:57:18.130Z,100897.63
2019-06-15T22:00:18.017Z,100908.92
2019-06-15T22:03:10.231Z,100917.14
2019-06-15T22:06:03.113Z,100922.47
2019-06-15T22:08:48.647Z,100913.91
2019-06-15T22:11:36.300Z,100927.44
2019-06-15T22:14:23.829Z,100932.00
2019-06-15T22:17:11.391Z,100938.53
2019-06-15T22:19:59.024Z,100940.48
2019-06-15T22:22:47.078Z,100936.92
2019-06-15T22:25:36.082Z,100939.97
2019-06-15T22:28:23.804Z,100950.00
2019-06-15T22:31:11.454Z,100953.27
2019-06-15T22:33:58.997Z,100958.39
2019-06-15T22:36:47.942Z,100970.09
2019-06-15T22:39:37.166Z,100982.87
2019-06-15T22:42:24.960Z,100981.13
2019-06-15T22:45:12.976Z,100989.16
2019-06-15T22:48:00.510Z,100992.86
2019-06-15T22:50:48.093Z,100997.89
2019-06-15T22:53:36.444Z,101004.96
2019-06-15T22:56:26.392Z,100942.36
2019-06-15T22:59:13.491Z,101013.99
2019-06-15T23:02:01.057Z,101012.98
2019-06-15T23:04:48.627Z,101010.22
2019-06-15T23:07:36.570Z,101003.59
2019-06-15T23:10:24.287Z,101003.12
2019-06-15T23:13:11.836Z,101001.97
2019-06-15T23:15:59.394Z,100995.72
2019-06-15T23:18:47.025Z,100991.99
2019-06-15T23:21:37.251Z,100992.01
2019-06-15T23:24:23.907Z,100990.49
2019-06-15T23:27:11.428Z,100986.16
2019-06-15T23:29:58.917Z,100983.53
2019-06-15T23:32:47.036Z,101002.66
2019-06-15T23:35:39.476Z,100992.96
2019-06-15T23:38:27.125Z,100997.73
2019-06-15T23:41:16.405Z,100999.31
2019-06-15T23:44:04.056Z,101000.52
2019-06-15T23:46:51.647Z,100998.01
2019-06-15T23:49:39.191Z,101004.23
2019-06-15T23:52:27.003Z,100999.95
2019-06-15T23:55:15.572Z,100991.77
2019-06-15T23:58:03.123Z,100995.66
